<?xml version="1.0" encoding="UTF-8" standalone="no" ?>
<gpx xmlns="http://www.topografix.com/GPX/1/1" xmlns:xsi="http://www.w3.org/2001/XMLSchema-instance" xsi:schemaLocation="http://www.topografix.com/GPX/1/1 http://www.topografix.com/GPX/1/1/gpx.xsd" version="1.1" creator="VisuGPX - https://www.visugpx.com">
  <metadata>
    <name>Bourgogne 2016</name>
    <desc><![CDATA[Beaune - Santenay]]></desc>
  </metadata>
  <trk>
    <name><![CDATA[Beaune_Santenay_parcours]]></name>
    <trkseg>
      <trkpt lat="47.02584" lon="4.83443">
        <ele>219.56640625</ele>
      </trkpt>
      <trkpt lat="47.02611" lon="4.83344">
        <ele>219</ele>
      </trkpt>
      <trkpt lat="47.02611" lon="4.83313">
        <ele>219</ele>
      </trkpt>
      <trkpt lat="47.02587" lon="4.83274">
        <ele>219</ele>
      </trkpt>
      <trkpt lat="47.02568" lon="4.83247">
        <ele>218.60546875</ele>
      </trkpt>
      <trkpt lat="47.02563" lon="4.83206">
        <ele>218.41015625</ele>
      </trkpt>
      <trkpt lat="47.02578" lon="4.83052">
        <ele>219</ele>
      </trkpt>
      <trkpt lat="47.02598" lon="4.82876">
        <ele>219</ele>
      </trkpt>
      <trkpt lat="47.02604" lon="4.82803">
        <ele>229</ele>
        <time>2010-04-18T10:20:41Z</time>
      </trkpt>
      <trkpt lat="47.02561" lon="4.82782">
        <ele>232</ele>
        <time>2010-04-18T10:26:15Z</time>
      </trkpt>
      <trkpt lat="47.0252" lon="4.82745">
        <ele>232</ele>
        <time>2010-04-18T10:26:30Z</time>
      </trkpt>
      <trkpt lat="47.02478" lon="4.82713">
        <ele>226</ele>
        <time>2010-04-18T10:27:01Z</time>
      </trkpt>
      <trkpt lat="47.02437" lon="4.82675">
        <ele>224</ele>
        <time>2010-04-18T10:27:14Z</time>
      </trkpt>
      <trkpt lat="47.02393" lon="4.82637">
        <ele>223</ele>
        <time>2010-04-18T10:27:27Z</time>
      </trkpt>
      <trkpt lat="47.02348" lon="4.82598">
        <ele>222</ele>
        <time>2010-04-18T10:27:40Z</time>
      </trkpt>
      <trkpt lat="47.02331" lon="4.82529">
        <ele>222</ele>
        <time>2010-04-18T10:27:54Z</time>
      </trkpt>
      <trkpt lat="47.0234" lon="4.82456">
        <ele>223</ele>
        <time>2010-04-18T10:28:08Z</time>
      </trkpt>
      <trkpt lat="47.0236" lon="4.82387">
        <ele>225</ele>
        <time>2010-04-18T10:28:22Z</time>
      </trkpt>
      <trkpt lat="47.02382" lon="4.8232">
        <ele>226</ele>
        <time>2010-04-18T10:28:36Z</time>
      </trkpt>
      <trkpt lat="47.02406" lon="4.82257">
        <ele>227</ele>
        <time>2010-04-18T10:28:49Z</time>
      </trkpt>
      <trkpt lat="47.02433" lon="4.82194">
        <ele>228</ele>
        <time>2010-04-18T10:29:02Z</time>
      </trkpt>
      <trkpt lat="47.02423" lon="4.82122">
        <ele>229</ele>
        <time>2010-04-18T10:29:18Z</time>
      </trkpt>
      <trkpt lat="47.02387" lon="4.8207">
        <ele>229</ele>
        <time>2010-04-18T10:29:32Z</time>
      </trkpt>
      <trkpt lat="47.02344" lon="4.82029">
        <ele>230</ele>
        <time>2010-04-18T10:29:46Z</time>
      </trkpt>
      <trkpt lat="47.02301" lon="4.81994">
        <ele>233</ele>
        <time>2010-04-18T10:29:59Z</time>
      </trkpt>
      <trkpt lat="47.02268" lon="4.81942">
        <ele>233</ele>
        <time>2010-04-18T10:30:11Z</time>
      </trkpt>
      <trkpt lat="47.02226" lon="4.81894">
        <ele>233</ele>
        <time>2010-04-18T10:30:23Z</time>
      </trkpt>
      <trkpt lat="47.02186" lon="4.81845">
        <ele>233</ele>
        <time>2010-04-18T10:30:35Z</time>
      </trkpt>
      <trkpt lat="47.02148" lon="4.81796">
        <ele>234</ele>
        <time>2010-04-18T10:30:47Z</time>
      </trkpt>
      <trkpt lat="47.02108" lon="4.81747">
        <ele>234</ele>
        <time>2010-04-18T10:30:59Z</time>
      </trkpt>
      <trkpt lat="47.0207" lon="4.81701">
        <ele>234</ele>
        <time>2010-04-18T10:31:10Z</time>
      </trkpt>
      <trkpt lat="47.02021" lon="4.81687">
        <ele>232</ele>
        <time>2010-04-18T10:31:24Z</time>
      </trkpt>
      <trkpt lat="47.01969" lon="4.81671">
        <ele>232</ele>
        <time>2010-04-18T10:31:35Z</time>
      </trkpt>
      <trkpt lat="47.01921" lon="4.81637">
        <ele>232</ele>
        <time>2010-04-18T10:31:47Z</time>
      </trkpt>
      <trkpt lat="47.0188" lon="4.81591">
        <ele>232</ele>
        <time>2010-04-18T10:32:00Z</time>
      </trkpt>
      <trkpt lat="47.01845" lon="4.81534">
        <ele>232</ele>
        <time>2010-04-18T10:32:11Z</time>
      </trkpt>
      <trkpt lat="47.01834" lon="4.81461">
        <ele>233</ele>
        <time>2010-04-18T10:32:22Z</time>
      </trkpt>
      <trkpt lat="47.01816" lon="4.81392">
        <ele>235</ele>
        <time>2010-04-18T10:32:33Z</time>
      </trkpt>
      <trkpt lat="47.01785" lon="4.81332">
        <ele>235</ele>
        <time>2010-04-18T10:32:44Z</time>
      </trkpt>
      <trkpt lat="47.0175" lon="4.81278">
        <ele>236</ele>
        <time>2010-04-18T10:32:55Z</time>
      </trkpt>
      <trkpt lat="47.01716" lon="4.81224">
        <ele>237</ele>
        <time>2010-04-18T10:33:07Z</time>
      </trkpt>
      <trkpt lat="47.01703" lon="4.81153">
        <ele>239</ele>
        <time>2010-04-18T10:33:20Z</time>
      </trkpt>
      <trkpt lat="47.01688" lon="4.81085">
        <ele>242</ele>
        <time>2010-04-18T10:33:33Z</time>
      </trkpt>
      <trkpt lat="47.01667" lon="4.81015">
        <ele>244</ele>
        <time>2010-04-18T10:33:47Z</time>
      </trkpt>
      <trkpt lat="47.01645" lon="4.80947">
        <ele>247</ele>
        <time>2010-04-18T10:34:01Z</time>
      </trkpt>
      <trkpt lat="47.01623" lon="4.80883">
        <ele>249</ele>
        <time>2010-04-18T10:34:14Z</time>
      </trkpt>
      <trkpt lat="47.01587" lon="4.80831">
        <ele>250</ele>
        <time>2010-04-18T10:34:27Z</time>
      </trkpt>
      <trkpt lat="47.01545" lon="4.80786">
        <ele>250</ele>
        <time>2010-04-18T10:34:39Z</time>
      </trkpt>
      <trkpt lat="47.01507" lon="4.80736">
        <ele>250</ele>
        <time>2010-04-18T10:34:51Z</time>
      </trkpt>
      <trkpt lat="47.01485" lon="4.80667">
        <ele>251</ele>
        <time>2010-04-18T10:35:03Z</time>
      </trkpt>
      <trkpt lat="47.01466" lon="4.80601">
        <ele>252</ele>
        <time>2010-04-18T10:35:15Z</time>
      </trkpt>
      <trkpt lat="47.01448" lon="4.8053">
        <ele>253</ele>
        <time>2010-04-18T10:35:27Z</time>
      </trkpt>
      <trkpt lat="47.01426" lon="4.80463">
        <ele>253</ele>
        <time>2010-04-18T10:35:38Z</time>
      </trkpt>
      <trkpt lat="47.01422" lon="4.80386">
        <ele>254</ele>
        <time>2010-04-18T10:35:49Z</time>
      </trkpt>
      <trkpt lat="47.01409" lon="4.80314">
        <ele>255</ele>
        <time>2010-04-18T10:36:00Z</time>
      </trkpt>
      <trkpt lat="47.01389" lon="4.80246">
        <ele>256</ele>
        <time>2010-04-18T10:36:11Z</time>
      </trkpt>
      <trkpt lat="47.01369" lon="4.80177">
        <ele>257</ele>
        <time>2010-04-18T10:36:23Z</time>
      </trkpt>
      <trkpt lat="47.01351" lon="4.80107">
        <ele>258</ele>
        <time>2010-04-18T10:36:35Z</time>
      </trkpt>
      <trkpt lat="47.01326" lon="4.8004">
        <ele>258</ele>
        <time>2010-04-18T10:36:47Z</time>
      </trkpt>
      <trkpt lat="47.01299" lon="4.79975">
        <ele>259</ele>
        <time>2010-04-18T10:37:00Z</time>
      </trkpt>
      <trkpt lat="47.01294" lon="4.79905">
        <ele>262</ele>
        <time>2010-04-18T10:37:17Z</time>
      </trkpt>
      <trkpt lat="47.01264" lon="4.79848">
        <ele>263</ele>
        <time>2010-04-18T10:37:31Z</time>
      </trkpt>
      <trkpt lat="47.01234" lon="4.79788">
        <ele>261</ele>
        <time>2010-04-18T10:37:42Z</time>
      </trkpt>
      <trkpt lat="47.01195" lon="4.79742">
        <ele>258</ele>
        <time>2010-04-18T10:37:57Z</time>
      </trkpt>
      <trkpt lat="47.01156" lon="4.79689">
        <ele>255</ele>
        <time>2010-04-18T10:38:07Z</time>
      </trkpt>
      <trkpt lat="47.0111" lon="4.79649">
        <ele>253</ele>
        <time>2010-04-18T10:38:17Z</time>
      </trkpt>
      <trkpt lat="47.01068" lon="4.79607">
        <ele>252</ele>
        <time>2010-04-18T10:38:28Z</time>
      </trkpt>
      <trkpt lat="47.01035" lon="4.79552">
        <ele>250</ele>
        <time>2010-04-18T10:38:41Z</time>
      </trkpt>
      <trkpt lat="47.00995" lon="4.79501">
        <ele>248</ele>
        <time>2010-04-18T10:38:52Z</time>
      </trkpt>
      <trkpt lat="47.00955" lon="4.79452">
        <ele>250</ele>
        <time>2010-04-18T10:39:09Z</time>
      </trkpt>
      <trkpt lat="47.0091" lon="4.79419">
        <ele>255</ele>
        <time>2010-04-18T10:41:13Z</time>
      </trkpt>
      <trkpt lat="47.00868" lon="4.79379">
        <ele>257</ele>
        <time>2010-04-18T10:41:27Z</time>
      </trkpt>
      <trkpt lat="47.00829" lon="4.79332">
        <ele>259</ele>
        <time>2010-04-18T10:41:42Z</time>
      </trkpt>
      <trkpt lat="47.00793" lon="4.79282">
        <ele>257</ele>
        <time>2010-04-18T10:41:58Z</time>
      </trkpt>
      <trkpt lat="47.00765" lon="4.79221">
        <ele>259</ele>
        <time>2010-04-18T10:42:13Z</time>
      </trkpt>
      <trkpt lat="47.00742" lon="4.79157">
        <ele>260</ele>
        <time>2010-04-18T10:42:28Z</time>
      </trkpt>
      <trkpt lat="47.0071" lon="4.79098">
        <ele>262</ele>
        <time>2010-04-18T10:42:44Z</time>
      </trkpt>
      <trkpt lat="47.00684" lon="4.79036">
        <ele>264</ele>
        <time>2010-04-18T10:43:00Z</time>
      </trkpt>
      <trkpt lat="47.00658" lon="4.78973">
        <ele>267</ele>
        <time>2010-04-18T10:43:18Z</time>
      </trkpt>
      <trkpt lat="47.00639" lon="4.78906">
        <ele>271</ele>
        <time>2010-04-18T10:43:37Z</time>
      </trkpt>
      <trkpt lat="47.00617" lon="4.78841">
        <ele>274</ele>
        <time>2010-04-18T10:43:58Z</time>
      </trkpt>
      <trkpt lat="47.00581" lon="4.78794">
        <ele>276</ele>
        <time>2010-04-18T10:44:16Z</time>
      </trkpt>
      <trkpt lat="47.00549" lon="4.78741">
        <ele>278</ele>
        <time>2010-04-18T10:44:33Z</time>
      </trkpt>
      <trkpt lat="47.00543" lon="4.78672">
        <ele>282</ele>
        <time>2010-04-18T10:44:53Z</time>
      </trkpt>
      <trkpt lat="47.00503" lon="4.78629">
        <ele>286</ele>
        <time>2010-04-18T10:45:13Z</time>
      </trkpt>
      <trkpt lat="47.00474" lon="4.78571">
        <ele>290</ele>
        <time>2010-04-18T10:45:33Z</time>
      </trkpt>
      <trkpt lat="47.00439" lon="4.78524">
        <ele>291</ele>
        <time>2010-04-18T10:45:51Z</time>
      </trkpt>
      <trkpt lat="47.00396" lon="4.78484">
        <ele>292</ele>
        <time>2010-04-18T10:46:06Z</time>
      </trkpt>
      <trkpt lat="47.00362" lon="4.78431">
        <ele>293</ele>
        <time>2010-04-18T10:46:20Z</time>
      </trkpt>
      <trkpt lat="47.0032" lon="4.78392">
        <ele>291</ele>
        <time>2010-04-18T10:46:33Z</time>
      </trkpt>
      <trkpt lat="47.00273" lon="4.78364">
        <ele>290</ele>
        <time>2010-04-18T10:46:44Z</time>
      </trkpt>
      <trkpt lat="47.00229" lon="4.78327">
        <ele>290</ele>
        <time>2010-04-18T10:46:56Z</time>
      </trkpt>
      <trkpt lat="47.00195" lon="4.78275">
        <ele>289</ele>
        <time>2010-04-18T10:47:11Z</time>
      </trkpt>
      <trkpt lat="47.00157" lon="4.78227">
        <ele>292</ele>
        <time>2010-04-18T10:47:26Z</time>
      </trkpt>
      <trkpt lat="47.00135" lon="4.78163">
        <ele>290</ele>
        <time>2010-04-18T10:49:50Z</time>
      </trkpt>
      <trkpt lat="47.00123" lon="4.78095">
        <ele>300</ele>
        <time>2010-04-18T10:50:18Z</time>
      </trkpt>
      <trkpt lat="47.00074" lon="4.78086">
        <ele>299</ele>
        <time>2010-04-18T10:50:32Z</time>
      </trkpt>
      <trkpt lat="47.00029" lon="4.78074">
        <ele>301</ele>
        <time>2010-04-18T10:50:59Z</time>
      </trkpt>
      <trkpt lat="46.99991" lon="4.78117">
        <ele>293</ele>
        <time>2010-04-18T10:51:16Z</time>
      </trkpt>
      <trkpt lat="46.99963" lon="4.78178">
        <ele>287</ele>
        <time>2010-04-18T10:51:32Z</time>
      </trkpt>
      <trkpt lat="46.99932" lon="4.78236">
        <ele>283</ele>
        <time>2010-04-18T10:51:43Z</time>
      </trkpt>
      <trkpt lat="46.99899" lon="4.78296">
        <ele>279</ele>
        <time>2010-04-18T10:51:51Z</time>
      </trkpt>
      <trkpt lat="46.99863" lon="4.78358">
        <ele>274</ele>
        <time>2010-04-18T10:52:00Z</time>
      </trkpt>
      <trkpt lat="46.99823" lon="4.78403">
        <ele>274</ele>
        <time>2010-04-18T10:53:11Z</time>
      </trkpt>
      <trkpt lat="46.99793" lon="4.78468">
        <ele>270</ele>
        <time>2010-04-18T10:53:23Z</time>
      </trkpt>
      <trkpt lat="46.99745" lon="4.78494">
        <ele>267</ele>
        <time>2010-04-18T10:53:34Z</time>
      </trkpt>
      <trkpt lat="46.99698" lon="4.78524">
        <ele>264</ele>
        <time>2010-04-18T10:53:44Z</time>
      </trkpt>
      <trkpt lat="46.99651" lon="4.78552">
        <ele>261</ele>
        <time>2010-04-18T10:53:54Z</time>
      </trkpt>
      <trkpt lat="46.99598" lon="4.7856">
        <ele>258</ele>
        <time>2010-04-18T10:54:09Z</time>
      </trkpt>
      <trkpt lat="46.99548" lon="4.78529">
        <ele>257</ele>
        <time>2010-04-18T10:54:19Z</time>
      </trkpt>
      <trkpt lat="46.99503" lon="4.78492">
        <ele>256</ele>
        <time>2010-04-18T10:54:28Z</time>
      </trkpt>
      <trkpt lat="46.99463" lon="4.78445">
        <ele>256</ele>
        <time>2010-04-18T10:54:37Z</time>
      </trkpt>
      <trkpt lat="46.99416" lon="4.78406">
        <ele>256</ele>
        <time>2010-04-18T10:54:47Z</time>
      </trkpt>
      <trkpt lat="46.99368" lon="4.78367">
        <ele>256</ele>
        <time>2010-04-18T10:54:57Z</time>
      </trkpt>
      <trkpt lat="46.99323" lon="4.78332">
        <ele>255</ele>
        <time>2010-04-18T10:55:06Z</time>
      </trkpt>
      <trkpt lat="46.9927" lon="4.78306">
        <ele>253</ele>
        <time>2010-04-18T10:55:15Z</time>
      </trkpt>
      <trkpt lat="46.99221" lon="4.78281">
        <ele>252</ele>
        <time>2010-04-18T10:55:25Z</time>
      </trkpt>
      <trkpt lat="46.9917" lon="4.78255">
        <ele>251</ele>
        <time>2010-04-18T10:55:34Z</time>
      </trkpt>
      <trkpt lat="46.99127" lon="4.78215">
        <ele>251</ele>
        <time>2010-04-18T10:55:43Z</time>
      </trkpt>
      <trkpt lat="46.99085" lon="4.78172">
        <ele>251</ele>
        <time>2010-04-18T10:55:53Z</time>
      </trkpt>
      <trkpt lat="46.99055" lon="4.78109">
        <ele>251</ele>
        <time>2010-04-18T10:56:05Z</time>
      </trkpt>
      <trkpt lat="46.99011" lon="4.78066">
        <ele>252</ele>
        <time>2010-04-18T10:56:17Z</time>
      </trkpt>
      <trkpt lat="46.9896" lon="4.7804">
        <ele>251</ele>
        <time>2010-04-18T10:56:28Z</time>
      </trkpt>
      <trkpt lat="46.98907" lon="4.7802">
        <ele>250</ele>
        <time>2010-04-18T10:56:38Z</time>
      </trkpt>
      <trkpt lat="46.98856" lon="4.77997">
        <ele>249</ele>
        <time>2010-04-18T10:56:48Z</time>
      </trkpt>
      <trkpt lat="46.98805" lon="4.77963">
        <ele>247</ele>
        <time>2010-04-18T10:56:58Z</time>
      </trkpt>
      <trkpt lat="46.98765" lon="4.77905">
        <ele>248</ele>
        <time>2010-04-18T10:57:08Z</time>
      </trkpt>
      <trkpt lat="46.98774" lon="4.77832">
        <ele>249</ele>
        <time>2010-04-18T10:57:18Z</time>
      </trkpt>
      <trkpt lat="46.98777" lon="4.77755">
        <ele>251</ele>
        <time>2010-04-18T10:57:29Z</time>
      </trkpt>
      <trkpt lat="46.98776" lon="4.77679">
        <ele>252</ele>
        <time>2010-04-18T10:57:41Z</time>
      </trkpt>
      <trkpt lat="46.98732" lon="4.77634">
        <ele>252</ele>
        <time>2010-04-18T10:57:52Z</time>
      </trkpt>
      <trkpt lat="46.98685" lon="4.77605">
        <ele>252</ele>
        <time>2010-04-18T10:58:02Z</time>
      </trkpt>
      <trkpt lat="46.98643" lon="4.77555">
        <ele>253</ele>
        <time>2010-04-18T10:58:13Z</time>
      </trkpt>
      <trkpt lat="46.98642" lon="4.77482">
        <ele>254</ele>
        <time>2010-04-18T10:58:25Z</time>
      </trkpt>
      <trkpt lat="46.98598" lon="4.77437">
        <ele>254</ele>
        <time>2010-04-18T10:58:36Z</time>
      </trkpt>
      <trkpt lat="46.98557" lon="4.77394">
        <ele>253</ele>
        <time>2010-04-18T10:58:45Z</time>
      </trkpt>
      <trkpt lat="46.98527" lon="4.7733">
        <ele>252</ele>
        <time>2010-04-18T10:58:55Z</time>
      </trkpt>
      <trkpt lat="46.98475" lon="4.77324">
        <ele>250</ele>
        <time>2010-04-18T10:59:06Z</time>
      </trkpt>
      <trkpt lat="46.98426" lon="4.77294">
        <ele>249</ele>
        <time>2010-04-18T10:59:15Z</time>
      </trkpt>
      <trkpt lat="46.98379" lon="4.7726">
        <ele>249</ele>
        <time>2010-04-18T10:59:25Z</time>
      </trkpt>
      <trkpt lat="46.98343" lon="4.77203">
        <ele>251</ele>
        <time>2010-04-18T10:59:37Z</time>
      </trkpt>
      <trkpt lat="46.98294" lon="4.7717">
        <ele>251</ele>
        <time>2010-04-18T10:59:48Z</time>
      </trkpt>
      <trkpt lat="46.98246" lon="4.77136">
        <ele>252</ele>
        <time>2010-04-18T10:59:59Z</time>
      </trkpt>
      <trkpt lat="46.98202" lon="4.77095">
        <ele>251</ele>
        <time>2010-04-18T11:00:10Z</time>
      </trkpt>
      <trkpt lat="46.9816" lon="4.77057">
        <ele>251</ele>
        <time>2010-04-18T11:00:21Z</time>
      </trkpt>
      <trkpt lat="46.98114" lon="4.77015">
        <ele>251</ele>
        <time>2010-04-18T11:00:32Z</time>
      </trkpt>
      <trkpt lat="46.9807" lon="4.76979">
        <ele>253</ele>
        <time>2010-04-18T11:00:45Z</time>
      </trkpt>
      <trkpt lat="46.98068" lon="4.76908">
        <ele>253</ele>
        <time>2010-04-18T11:01:12Z</time>
      </trkpt>
      <trkpt lat="46.98028" lon="4.76871">
        <ele>253</ele>
        <time>2010-04-18T11:01:36Z</time>
      </trkpt>
      <trkpt lat="46.97978" lon="4.76885">
        <ele>254</ele>
        <time>2010-04-18T11:01:52Z</time>
      </trkpt>
      <trkpt lat="46.9793" lon="4.76901">
        <ele>255</ele>
        <time>2010-04-18T11:02:47Z</time>
      </trkpt>
      <trkpt lat="46.97884" lon="4.7687">
        <ele>255</ele>
        <time>2010-04-18T11:03:02Z</time>
      </trkpt>
      <trkpt lat="46.97838" lon="4.76881">
        <ele>254</ele>
        <time>2010-04-18T11:03:26Z</time>
      </trkpt>
      <trkpt lat="46.97809" lon="4.76937">
        <ele>259</ele>
        <time>2010-04-18T11:07:08Z</time>
      </trkpt>
      <trkpt lat="46.97771" lon="4.76901">
        <ele>261</ele>
        <time>2010-04-18T11:09:18Z</time>
      </trkpt>
      <trkpt lat="46.9772" lon="4.76877">
        <ele>254</ele>
        <time>2010-04-18T11:09:29Z</time>
      </trkpt>
      <trkpt lat="46.97667" lon="4.76863">
        <ele>244</ele>
        <time>2010-04-18T11:09:37Z</time>
      </trkpt>
      <trkpt lat="46.9762" lon="4.76825">
        <ele>239</ele>
        <time>2010-04-18T11:09:45Z</time>
      </trkpt>
      <trkpt lat="46.97571" lon="4.76798">
        <ele>240</ele>
        <time>2010-04-18T11:09:55Z</time>
      </trkpt>
      <trkpt lat="46.97521" lon="4.76801">
        <ele>240</ele>
        <time>2010-04-18T11:10:07Z</time>
      </trkpt>
      <trkpt lat="46.97473" lon="4.76772">
        <ele>240</ele>
        <time>2010-04-18T11:10:20Z</time>
      </trkpt>
      <trkpt lat="46.97427" lon="4.76738">
        <ele>242</ele>
        <time>2010-04-18T11:10:32Z</time>
      </trkpt>
      <trkpt lat="46.9738" lon="4.76712">
        <ele>245</ele>
        <time>2010-04-18T11:10:47Z</time>
      </trkpt>
      <trkpt lat="46.97335" lon="4.76682">
        <ele>245</ele>
        <time>2010-04-18T11:10:59Z</time>
      </trkpt>
      <trkpt lat="46.97286" lon="4.76646">
        <ele>244</ele>
        <time>2010-04-18T11:11:10Z</time>
      </trkpt>
      <trkpt lat="46.97241" lon="4.76606">
        <ele>244</ele>
        <time>2010-04-18T11:11:20Z</time>
      </trkpt>
      <trkpt lat="46.97198" lon="4.76558">
        <ele>244</ele>
        <time>2010-04-18T11:11:31Z</time>
      </trkpt>
      <trkpt lat="46.97157" lon="4.76504">
        <ele>243</ele>
        <time>2010-04-18T11:11:42Z</time>
      </trkpt>
      <trkpt lat="46.97114" lon="4.76457">
        <ele>243</ele>
        <time>2010-04-18T11:11:52Z</time>
      </trkpt>
      <trkpt lat="46.97067" lon="4.76421">
        <ele>242</ele>
        <time>2010-04-18T11:12:01Z</time>
      </trkpt>
      <trkpt lat="46.97025" lon="4.76375">
        <ele>241</ele>
        <time>2010-04-18T11:12:13Z</time>
      </trkpt>
      <trkpt lat="46.97035" lon="4.76302">
        <ele>242</ele>
        <time>2010-04-18T11:12:31Z</time>
      </trkpt>
      <trkpt lat="46.96991" lon="4.76254">
        <ele>242</ele>
        <time>2010-04-18T11:12:42Z</time>
      </trkpt>
      <trkpt lat="46.96953" lon="4.76202">
        <ele>242</ele>
        <time>2010-04-18T11:12:52Z</time>
      </trkpt>
      <trkpt lat="46.96915" lon="4.76145">
        <ele>242</ele>
        <time>2010-04-18T11:13:02Z</time>
      </trkpt>
      <trkpt lat="46.96874" lon="4.76093">
        <ele>243</ele>
        <time>2010-04-18T11:13:13Z</time>
      </trkpt>
      <trkpt lat="46.96822" lon="4.76075">
        <ele>247</ele>
        <time>2010-04-18T11:13:26Z</time>
      </trkpt>
      <trkpt lat="46.96769" lon="4.7608">
        <ele>246</ele>
        <time>2010-04-18T11:13:38Z</time>
      </trkpt>
      <trkpt lat="46.96716" lon="4.76078">
        <ele>245</ele>
        <time>2010-04-18T11:13:49Z</time>
      </trkpt>
      <trkpt lat="46.96664" lon="4.76074">
        <ele>244</ele>
        <time>2010-04-18T11:14:00Z</time>
      </trkpt>
      <trkpt lat="46.96614" lon="4.7605">
        <ele>243</ele>
        <time>2010-04-18T11:14:11Z</time>
      </trkpt>
      <trkpt lat="46.96584" lon="4.7599">
        <ele>245</ele>
        <time>2010-04-18T11:14:22Z</time>
      </trkpt>
      <trkpt lat="46.96553" lon="4.75926">
        <ele>247</ele>
        <time>2010-04-18T11:14:34Z</time>
      </trkpt>
      <trkpt lat="46.96523" lon="4.75863">
        <ele>248</ele>
        <time>2010-04-18T11:14:46Z</time>
      </trkpt>
      <trkpt lat="46.96491" lon="4.75802">
        <ele>249</ele>
        <time>2010-04-18T11:14:58Z</time>
      </trkpt>
      <trkpt lat="46.96466" lon="4.75735">
        <ele>250</ele>
        <time>2010-04-18T11:15:10Z</time>
      </trkpt>
      <trkpt lat="46.96426" lon="4.75684">
        <ele>252</ele>
        <time>2010-04-18T11:15:22Z</time>
      </trkpt>
      <trkpt lat="46.96389" lon="4.75626">
        <ele>254</ele>
        <time>2010-04-18T11:15:34Z</time>
      </trkpt>
      <trkpt lat="46.96352" lon="4.75573">
        <ele>257</ele>
        <time>2010-04-18T11:15:47Z</time>
      </trkpt>
      <trkpt lat="46.96313" lon="4.75528">
        <ele>260</ele>
        <time>2010-04-18T11:15:59Z</time>
      </trkpt>
      <trkpt lat="46.96278" lon="4.75477">
        <ele>261</ele>
        <time>2010-04-18T11:16:11Z</time>
      </trkpt>
      <trkpt lat="46.96239" lon="4.75428">
        <ele>261</ele>
        <time>2010-04-18T11:16:23Z</time>
      </trkpt>
      <trkpt lat="46.96195" lon="4.75393">
        <ele>261</ele>
        <time>2010-04-18T11:16:34Z</time>
      </trkpt>
      <trkpt lat="46.96152" lon="4.75355">
        <ele>262</ele>
        <time>2010-04-18T11:16:45Z</time>
      </trkpt>
      <trkpt lat="46.96108" lon="4.75317">
        <ele>263</ele>
        <time>2010-04-18T11:16:57Z</time>
      </trkpt>
      <trkpt lat="46.96064" lon="4.75277">
        <ele>263</ele>
        <time>2010-04-18T11:17:09Z</time>
      </trkpt>
      <trkpt lat="46.96021" lon="4.75238">
        <ele>263</ele>
        <time>2010-04-18T11:17:19Z</time>
      </trkpt>
      <trkpt lat="46.95977" lon="4.75201">
        <ele>263</ele>
        <time>2010-04-18T11:17:29Z</time>
      </trkpt>
      <trkpt lat="46.9593" lon="4.75164">
        <ele>263</ele>
        <time>2010-04-18T11:17:39Z</time>
      </trkpt>
      <trkpt lat="46.95879" lon="4.75131">
        <ele>262</ele>
        <time>2010-04-18T11:17:49Z</time>
      </trkpt>
      <trkpt lat="46.95832" lon="4.75091">
        <ele>261</ele>
        <time>2010-04-18T11:17:59Z</time>
      </trkpt>
      <trkpt lat="46.95788" lon="4.75047">
        <ele>262</ele>
        <time>2010-04-18T11:18:09Z</time>
      </trkpt>
      <trkpt lat="46.95752" lon="4.74991">
        <ele>264</ele>
        <time>2010-04-18T11:18:20Z</time>
      </trkpt>
      <trkpt lat="46.95708" lon="4.74946">
        <ele>266</ele>
        <time>2010-04-18T11:18:32Z</time>
      </trkpt>
      <trkpt lat="46.95671" lon="4.74896">
        <ele>267</ele>
        <time>2010-04-18T11:18:43Z</time>
      </trkpt>
      <trkpt lat="46.95633" lon="4.74843">
        <ele>270</ele>
        <time>2010-04-18T11:18:55Z</time>
      </trkpt>
      <trkpt lat="46.95596" lon="4.74792">
        <ele>271</ele>
        <time>2010-04-18T11:19:06Z</time>
      </trkpt>
      <trkpt lat="46.95559" lon="4.7474">
        <ele>271</ele>
        <time>2010-04-18T11:19:20Z</time>
      </trkpt>
      <trkpt lat="46.95515" lon="4.74709">
        <ele>265</ele>
        <time>2010-04-18T11:22:57Z</time>
      </trkpt>
      <trkpt lat="46.95469" lon="4.74674">
        <ele>262</ele>
        <time>2010-04-18T11:23:09Z</time>
      </trkpt>
      <trkpt lat="46.95426" lon="4.74622">
        <ele>260</ele>
        <time>2010-04-18T11:23:18Z</time>
      </trkpt>
      <trkpt lat="46.95377" lon="4.74581">
        <ele>257</ele>
        <time>2010-04-18T11:23:25Z</time>
      </trkpt>
      <trkpt lat="46.95325" lon="4.74548">
        <ele>255</ele>
        <time>2010-04-18T11:23:32Z</time>
      </trkpt>
      <trkpt lat="46.95274" lon="4.74579">
        <ele>250</ele>
        <time>2010-04-18T11:23:43Z</time>
      </trkpt>
      <trkpt lat="46.95235" lon="4.74648">
        <ele>244</ele>
        <time>2010-04-18T11:23:50Z</time>
      </trkpt>
      <trkpt lat="46.95202" lon="4.74715">
        <ele>240</ele>
        <time>2010-04-18T11:23:56Z</time>
      </trkpt>
      <trkpt lat="46.95174" lon="4.74796">
        <ele>237</ele>
        <time>2010-04-18T11:24:03Z</time>
      </trkpt>
      <trkpt lat="46.95146" lon="4.74866">
        <ele>236</ele>
        <time>2010-04-18T11:24:10Z</time>
      </trkpt>
      <trkpt lat="46.95117" lon="4.74937">
        <ele>234</ele>
        <time>2010-04-18T11:24:18Z</time>
      </trkpt>
      <trkpt lat="46.95087" lon="4.75004">
        <ele>233</ele>
        <time>2010-04-18T11:24:26Z</time>
      </trkpt>
      <trkpt lat="46.95063" lon="4.75071">
        <ele>232</ele>
        <time>2010-04-18T11:24:34Z</time>
      </trkpt>
      <trkpt lat="46.95038" lon="4.7514">
        <ele>231</ele>
        <time>2010-04-18T11:24:43Z</time>
      </trkpt>
      <trkpt lat="46.94988" lon="4.75131">
        <ele>230</ele>
        <time>2010-04-18T11:24:53Z</time>
      </trkpt>
      <trkpt lat="46.9494" lon="4.75152">
        <ele>230</ele>
        <time>2010-04-18T11:25:31Z</time>
      </trkpt>
      <trkpt lat="46.94912" lon="4.75212">
        <ele>230</ele>
        <time>2010-04-18T11:25:44Z</time>
      </trkpt>
      <trkpt lat="46.94878" lon="4.75267">
        <ele>230</ele>
        <time>2010-04-18T11:25:59Z</time>
      </trkpt>
      <trkpt lat="46.94854" lon="4.75329">
        <ele>229</ele>
        <time>2010-04-18T11:26:12Z</time>
      </trkpt>
      <trkpt lat="46.94807" lon="4.7534">
        <ele>231</ele>
        <time>2010-04-18T11:26:27Z</time>
      </trkpt>
      <trkpt lat="46.94758" lon="4.75314">
        <ele>234</ele>
        <time>2010-04-18T11:26:40Z</time>
      </trkpt>
      <trkpt lat="46.9471" lon="4.75292">
        <ele>238</ele>
        <time>2010-04-18T11:26:53Z</time>
      </trkpt>
      <trkpt lat="46.94659" lon="4.75275">
        <ele>237</ele>
        <time>2010-04-18T11:27:07Z</time>
      </trkpt>
      <trkpt lat="46.9461" lon="4.75262">
        <ele>237</ele>
        <time>2010-04-18T11:27:17Z</time>
      </trkpt>
      <trkpt lat="46.94559" lon="4.75243">
        <ele>236</ele>
        <time>2010-04-18T11:27:29Z</time>
      </trkpt>
      <trkpt lat="46.94557" lon="4.75174">
        <ele>234</ele>
        <time>2010-04-18T11:29:22Z</time>
      </trkpt>
      <trkpt lat="46.94559" lon="4.75103">
        <ele>236</ele>
        <time>2010-04-18T11:29:35Z</time>
      </trkpt>
      <trkpt lat="46.94574" lon="4.75029">
        <ele>236</ele>
        <time>2010-04-18T11:29:47Z</time>
      </trkpt>
      <trkpt lat="46.94583" lon="4.74956">
        <ele>237</ele>
        <time>2010-04-18T11:29:59Z</time>
      </trkpt>
      <trkpt lat="46.94592" lon="4.74879">
        <ele>236</ele>
        <time>2010-04-18T11:30:12Z</time>
      </trkpt>
      <trkpt lat="46.946" lon="4.74805">
        <ele>237</ele>
        <time>2010-04-18T11:30:24Z</time>
      </trkpt>
      <trkpt lat="46.94608" lon="4.74733">
        <ele>239</ele>
        <time>2010-04-18T11:30:37Z</time>
      </trkpt>
      <trkpt lat="46.94618" lon="4.74661">
        <ele>240</ele>
        <time>2010-04-18T11:30:50Z</time>
      </trkpt>
      <trkpt lat="46.94627" lon="4.74588">
        <ele>242</ele>
        <time>2010-04-18T11:31:03Z</time>
      </trkpt>
      <trkpt lat="46.94638" lon="4.74513">
        <ele>243</ele>
        <time>2010-04-18T11:31:16Z</time>
      </trkpt>
      <trkpt lat="46.94645" lon="4.74441">
        <ele>244</ele>
        <time>2010-04-18T11:31:28Z</time>
      </trkpt>
      <trkpt lat="46.94635" lon="4.74368">
        <ele>245</ele>
        <time>2010-04-18T11:31:43Z</time>
      </trkpt>
      <trkpt lat="46.94586" lon="4.74345">
        <ele>244</ele>
        <time>2010-04-18T11:31:54Z</time>
      </trkpt>
      <trkpt lat="46.94536" lon="4.74319">
        <ele>244</ele>
        <time>2010-04-18T11:32:04Z</time>
      </trkpt>
      <trkpt lat="46.9449" lon="4.74289">
        <ele>245</ele>
        <time>2010-04-18T11:32:14Z</time>
      </trkpt>
      <trkpt lat="46.94444" lon="4.74247">
        <ele>246</ele>
        <time>2010-04-18T11:32:25Z</time>
      </trkpt>
      <trkpt lat="46.94401" lon="4.74203">
        <ele>249</ele>
        <time>2010-04-18T11:32:36Z</time>
      </trkpt>
      <trkpt lat="46.94358" lon="4.74162">
        <ele>250</ele>
        <time>2010-04-18T11:32:46Z</time>
      </trkpt>
      <trkpt lat="46.94323" lon="4.74109">
        <ele>252</ele>
        <time>2010-04-18T11:32:56Z</time>
      </trkpt>
      <trkpt lat="46.94286" lon="4.74058">
        <ele>252</ele>
        <time>2010-04-18T11:33:06Z</time>
      </trkpt>
      <trkpt lat="46.9424" lon="4.7402">
        <ele>252</ele>
        <time>2010-04-18T11:33:16Z</time>
      </trkpt>
      <trkpt lat="46.94194" lon="4.73984">
        <ele>251</ele>
        <time>2010-04-18T11:33:26Z</time>
      </trkpt>
      <trkpt lat="46.94144" lon="4.73977">
        <ele>249</ele>
        <time>2010-04-18T11:33:41Z</time>
      </trkpt>
      <trkpt lat="46.94104" lon="4.74018">
        <ele>246</ele>
        <time>2010-04-18T11:34:05Z</time>
      </trkpt>
      <trkpt lat="46.94078" lon="4.7409">
        <ele>243</ele>
        <time>2010-04-18T11:34:15Z</time>
      </trkpt>
      <trkpt lat="46.9405" lon="4.74153">
        <ele>241</ele>
        <time>2010-04-18T11:34:23Z</time>
      </trkpt>
      <trkpt lat="46.94019" lon="4.74216">
        <ele>239</ele>
        <time>2010-04-18T11:34:31Z</time>
      </trkpt>
      <trkpt lat="46.93989" lon="4.74278">
        <ele>238</ele>
        <time>2010-04-18T11:34:39Z</time>
      </trkpt>
      <trkpt lat="46.93962" lon="4.74352">
        <ele>237</ele>
        <time>2010-04-18T11:34:48Z</time>
      </trkpt>
      <trkpt lat="46.93937" lon="4.74427">
        <ele>236</ele>
        <time>2010-04-18T11:34:57Z</time>
      </trkpt>
      <trkpt lat="46.93912" lon="4.74498">
        <ele>236</ele>
        <time>2010-04-18T11:35:06Z</time>
      </trkpt>
      <trkpt lat="46.93881" lon="4.74558">
        <ele>235</ele>
        <time>2010-04-18T11:35:17Z</time>
      </trkpt>
      <trkpt lat="46.93837" lon="4.74518">
        <ele>232</ele>
        <time>2010-04-18T11:35:30Z</time>
      </trkpt>
      <trkpt lat="46.93801" lon="4.74474">
        <ele>235</ele>
        <time>2010-04-18T11:36:10Z</time>
      </trkpt>
      <trkpt lat="46.9376" lon="4.74428">
        <ele>235</ele>
        <time>2010-04-18T11:36:20Z</time>
      </trkpt>
      <trkpt lat="46.93725" lon="4.74375">
        <ele>235</ele>
        <time>2010-04-18T11:36:32Z</time>
      </trkpt>
      <trkpt lat="46.93744" lon="4.74301">
        <ele>236</ele>
        <time>2010-04-18T11:36:43Z</time>
      </trkpt>
      <trkpt lat="46.93758" lon="4.7423">
        <ele>237</ele>
        <time>2010-04-18T11:36:53Z</time>
      </trkpt>
      <trkpt lat="46.93765" lon="4.74154">
        <ele>238</ele>
        <time>2010-04-18T11:37:04Z</time>
      </trkpt>
      <trkpt lat="46.9378" lon="4.74083">
        <ele>238</ele>
        <time>2010-04-18T11:37:14Z</time>
      </trkpt>
      <trkpt lat="46.93799" lon="4.74013">
        <ele>239</ele>
        <time>2010-04-18T11:37:24Z</time>
      </trkpt>
      <trkpt lat="46.93823" lon="4.73945">
        <ele>239</ele>
        <time>2010-04-18T11:37:34Z</time>
      </trkpt>
      <trkpt lat="46.93845" lon="4.73876">
        <ele>240</ele>
        <time>2010-04-18T11:37:45Z</time>
      </trkpt>
      <trkpt lat="46.93859" lon="4.73803">
        <ele>239</ele>
        <time>2010-04-18T11:38:42Z</time>
      </trkpt>
      <trkpt lat="46.93879" lon="4.73738">
        <ele>241</ele>
        <time>2010-04-18T11:39:13Z</time>
      </trkpt>
      <trkpt lat="46.93867" lon="4.73665">
        <ele>242</ele>
        <time>2010-04-18T11:39:25Z</time>
      </trkpt>
      <trkpt lat="46.93834" lon="4.7361">
        <ele>243</ele>
        <time>2010-04-18T11:39:36Z</time>
      </trkpt>
      <trkpt lat="46.9381" lon="4.7354">
        <ele>244</ele>
        <time>2010-04-18T11:39:48Z</time>
      </trkpt>
      <trkpt lat="46.9381" lon="4.73466">
        <ele>245</ele>
        <time>2010-04-18T11:39:59Z</time>
      </trkpt>
      <trkpt lat="46.93808" lon="4.73391">
        <ele>246</ele>
        <time>2010-04-18T11:40:10Z</time>
      </trkpt>
      <trkpt lat="46.93808" lon="4.73314">
        <ele>246</ele>
        <time>2010-04-18T11:40:22Z</time>
      </trkpt>
      <trkpt lat="46.93783" lon="4.7325">
        <ele>246</ele>
        <time>2010-04-18T11:40:36Z</time>
      </trkpt>
      <trkpt lat="46.93802" lon="4.73184">
        <ele>248</ele>
        <time>2010-04-18T11:40:51Z</time>
      </trkpt>
      <trkpt lat="46.93822" lon="4.73118">
        <ele>252</ele>
        <time>2010-04-18T11:41:07Z</time>
      </trkpt>
      <trkpt lat="46.93826" lon="4.73043">
        <ele>255</ele>
        <time>2010-04-18T11:41:24Z</time>
      </trkpt>
      <trkpt lat="46.93811" lon="4.72974">
        <ele>257</ele>
        <time>2010-04-18T11:41:41Z</time>
      </trkpt>
      <trkpt lat="46.93764" lon="4.72943">
        <ele>257</ele>
        <time>2010-04-18T11:41:55Z</time>
      </trkpt>
      <trkpt lat="46.93719" lon="4.7291">
        <ele>260</ele>
        <time>2010-04-18T11:42:08Z</time>
      </trkpt>
      <trkpt lat="46.93678" lon="4.72866">
        <ele>258</ele>
        <time>2010-04-18T11:45:01Z</time>
      </trkpt>
      <trkpt lat="46.93655" lon="4.72803">
        <ele>260</ele>
        <time>2010-04-18T11:45:16Z</time>
      </trkpt>
      <trkpt lat="46.93629" lon="4.72743">
        <ele>261</ele>
        <time>2010-04-18T11:45:31Z</time>
      </trkpt>
      <trkpt lat="46.936" lon="4.72685">
        <ele>262</ele>
        <time>2010-04-18T11:45:45Z</time>
      </trkpt>
      <trkpt lat="46.93563" lon="4.72634">
        <ele>263</ele>
        <time>2010-04-18T11:45:59Z</time>
      </trkpt>
      <trkpt lat="46.93547" lon="4.72567">
        <ele>264</ele>
        <time>2010-04-18T11:46:16Z</time>
      </trkpt>
      <trkpt lat="46.93538" lon="4.72498">
        <ele>265</ele>
        <time>2010-04-18T11:46:37Z</time>
      </trkpt>
      <trkpt lat="46.93504" lon="4.72444">
        <ele>272</ele>
        <time>2010-04-18T11:46:56Z</time>
      </trkpt>
      <trkpt lat="46.93475" lon="4.72386">
        <ele>271</ele>
        <time>2010-04-18T11:47:14Z</time>
      </trkpt>
      <trkpt lat="46.93438" lon="4.72426">
        <ele>268</ele>
        <time>2010-04-18T11:47:32Z</time>
      </trkpt>
      <trkpt lat="46.93431" lon="4.72502">
        <ele>264</ele>
        <time>2010-04-18T11:47:50Z</time>
      </trkpt>
      <trkpt lat="46.93417" lon="4.72578">
        <ele>260</ele>
        <time>2010-04-18T11:47:59Z</time>
      </trkpt>
      <trkpt lat="46.93394" lon="4.72655">
        <ele>255</ele>
        <time>2010-04-18T11:48:06Z</time>
      </trkpt>
      <trkpt lat="46.93367" lon="4.72724">
        <ele>250</ele>
        <time>2010-04-18T11:48:12Z</time>
      </trkpt>
      <trkpt lat="46.93318" lon="4.72755">
        <ele>245</ele>
        <time>2010-04-18T11:48:26Z</time>
      </trkpt>
      <trkpt lat="46.93272" lon="4.7273">
        <ele>245</ele>
        <time>2010-04-18T11:48:39Z</time>
      </trkpt>
      <trkpt lat="46.93236" lon="4.72787">
        <ele>242</ele>
        <time>2010-04-18T11:48:48Z</time>
      </trkpt>
      <trkpt lat="46.93195" lon="4.72847">
        <ele>240</ele>
        <time>2010-04-18T11:48:57Z</time>
      </trkpt>
      <trkpt lat="46.93149" lon="4.72886">
        <ele>238</ele>
        <time>2010-04-18T11:49:05Z</time>
      </trkpt>
      <trkpt lat="46.93106" lon="4.72939">
        <ele>235</ele>
        <time>2010-04-18T11:49:13Z</time>
      </trkpt>
      <trkpt lat="46.93072" lon="4.73004">
        <ele>233</ele>
        <time>2010-04-18T11:49:21Z</time>
      </trkpt>
      <trkpt lat="46.9304" lon="4.73065">
        <ele>231</ele>
        <time>2010-04-18T11:49:29Z</time>
      </trkpt>
      <trkpt lat="46.92991" lon="4.73087">
        <ele>231</ele>
        <time>2010-04-18T11:49:43Z</time>
      </trkpt>
      <trkpt lat="46.92948" lon="4.73049">
        <ele>232</ele>
        <time>2010-04-18T11:49:54Z</time>
      </trkpt>
      <trkpt lat="46.92906" lon="4.73007">
        <ele>232</ele>
        <time>2010-04-18T11:50:04Z</time>
      </trkpt>
      <trkpt lat="46.92861" lon="4.72967">
        <ele>231</ele>
        <time>2010-04-18T11:50:13Z</time>
      </trkpt>
      <trkpt lat="46.92815" lon="4.72929">
        <ele>231</ele>
        <time>2010-04-18T11:50:22Z</time>
      </trkpt>
      <trkpt lat="46.9277" lon="4.72892">
        <ele>231</ele>
        <time>2010-04-18T11:50:31Z</time>
      </trkpt>
      <trkpt lat="46.9272" lon="4.7286">
        <ele>232</ele>
        <time>2010-04-18T11:50:41Z</time>
      </trkpt>
      <trkpt lat="46.92674" lon="4.72821">
        <ele>232</ele>
        <time>2010-04-18T11:50:51Z</time>
      </trkpt>
      <trkpt lat="46.92634" lon="4.72776">
        <ele>232</ele>
        <time>2010-04-18T11:51:00Z</time>
      </trkpt>
      <trkpt lat="46.92592" lon="4.72726">
        <ele>231</ele>
        <time>2010-04-18T11:51:09Z</time>
      </trkpt>
      <trkpt lat="46.92547" lon="4.72682">
        <ele>231</ele>
        <time>2010-04-18T11:51:18Z</time>
      </trkpt>
      <trkpt lat="46.92504" lon="4.72636">
        <ele>232</ele>
        <time>2010-04-18T11:51:27Z</time>
      </trkpt>
      <trkpt lat="46.92462" lon="4.72592">
        <ele>232</ele>
        <time>2010-04-18T11:51:36Z</time>
      </trkpt>
      <trkpt lat="46.92417" lon="4.72547">
        <ele>233</ele>
        <time>2010-04-18T11:51:46Z</time>
      </trkpt>
      <trkpt lat="46.92368" lon="4.72518">
        <ele>233</ele>
        <time>2010-04-18T11:51:57Z</time>
      </trkpt>
      <trkpt lat="46.92321" lon="4.72524">
        <ele>231</ele>
        <time>2010-04-18T11:52:38Z</time>
      </trkpt>
      <trkpt lat="46.92272" lon="4.72507">
        <ele>230</ele>
        <time>2010-04-18T11:52:49Z</time>
      </trkpt>
      <trkpt lat="46.92226" lon="4.72478">
        <ele>231</ele>
        <time>2010-04-18T11:53:00Z</time>
      </trkpt>
      <trkpt lat="46.92179" lon="4.72451">
        <ele>232</ele>
        <time>2010-04-18T11:53:12Z</time>
      </trkpt>
      <trkpt lat="46.92138" lon="4.72411">
        <ele>235</ele>
        <time>2010-04-18T11:53:24Z</time>
      </trkpt>
      <trkpt lat="46.92096" lon="4.72367">
        <ele>238</ele>
        <time>2010-04-18T11:53:36Z</time>
      </trkpt>
      <trkpt lat="46.92056" lon="4.72322">
        <ele>238</ele>
        <time>2010-04-18T11:53:47Z</time>
      </trkpt>
      <trkpt lat="46.9201" lon="4.72284">
        <ele>237</ele>
        <time>2010-04-18T11:53:58Z</time>
      </trkpt>
      <trkpt lat="46.91957" lon="4.72274">
        <ele>235</ele>
        <time>2010-04-18T11:54:08Z</time>
      </trkpt>
      <trkpt lat="46.91904" lon="4.72262">
        <ele>233</ele>
        <time>2010-04-18T11:54:17Z</time>
      </trkpt>
      <trkpt lat="46.91852" lon="4.72265">
        <ele>230</ele>
        <time>2010-04-18T11:54:25Z</time>
      </trkpt>
      <trkpt lat="46.91795" lon="4.72278">
        <ele>227</ele>
        <time>2010-04-18T11:54:33Z</time>
      </trkpt>
      <trkpt lat="46.9174" lon="4.72276">
        <ele>225</ele>
        <time>2010-04-18T11:54:41Z</time>
      </trkpt>
      <trkpt lat="46.91686" lon="4.72283">
        <ele>223</ele>
        <time>2010-04-18T11:54:49Z</time>
      </trkpt>
      <trkpt lat="46.91634" lon="4.72265">
        <ele>222</ele>
        <time>2010-04-18T11:54:58Z</time>
      </trkpt>
      <trkpt lat="46.91607" lon="4.72203">
        <ele>221</ele>
        <time>2010-04-18T11:55:07Z</time>
      </trkpt>
      <trkpt lat="46.9159" lon="4.7213">
        <ele>222</ele>
        <time>2010-04-18T11:55:16Z</time>
      </trkpt>
      <trkpt lat="46.91572" lon="4.72059">
        <ele>222</ele>
        <time>2010-04-18T11:55:26Z</time>
      </trkpt>
      <trkpt lat="46.91557" lon="4.71985">
        <ele>222</ele>
        <time>2010-04-18T11:55:36Z</time>
      </trkpt>
      <trkpt lat="46.91556" lon="4.71911">
        <ele>222</ele>
        <time>2010-04-18T11:55:45Z</time>
      </trkpt>
      <trkpt lat="46.91552" lon="4.71832">
        <ele>222</ele>
        <time>2010-04-18T11:55:55Z</time>
      </trkpt>
      <trkpt lat="46.91545" lon="4.71757">
        <ele>222</ele>
        <time>2010-04-18T11:56:04Z</time>
      </trkpt>
      <trkpt lat="46.91538" lon="4.71676">
        <ele>222</ele>
        <time>2010-04-18T11:56:14Z</time>
      </trkpt>
      <trkpt lat="46.91529" lon="4.716">
        <ele>224</ele>
        <time>2010-04-18T11:56:25Z</time>
      </trkpt>
      <trkpt lat="46.91514" lon="4.71528">
        <ele>227</ele>
        <time>2010-04-18T11:56:37Z</time>
      </trkpt>
      <trkpt lat="46.91494" lon="4.71476">
        <ele>228</ele>
        <time>2010-04-18T11:58:31Z</time>
      </trkpt>
      <trkpt lat="46.91497" lon="4.71471">
        <ele>212</ele>
        <time>2010-04-18T12:30:04Z</time>
      </trkpt>
      <trkpt lat="46.91506" lon="4.71404">
        <ele>225</ele>
        <time>2010-04-18T12:34:18Z</time>
      </trkpt>
      <trkpt lat="46.91502" lon="4.71329">
        <ele>225</ele>
        <time>2010-04-18T12:34:29Z</time>
      </trkpt>
      <trkpt lat="46.91484" lon="4.71257">
        <ele>225</ele>
        <time>2010-04-18T12:34:40Z</time>
      </trkpt>
      <trkpt lat="46.91456" lon="4.71192">
        <ele>226</ele>
        <time>2010-04-18T12:34:51Z</time>
      </trkpt>
      <trkpt lat="46.91429" lon="4.71125">
        <ele>228</ele>
        <time>2010-04-18T12:35:04Z</time>
      </trkpt>
      <trkpt lat="46.91411" lon="4.71057">
        <ele>230</ele>
        <time>2010-04-18T12:35:19Z</time>
      </trkpt>
      <trkpt lat="46.91405" lon="4.70988">
        <ele>234</ele>
        <time>2010-04-18T12:35:39Z</time>
      </trkpt>
      <trkpt lat="46.91403" lon="4.70918">
        <ele>237</ele>
        <time>2010-04-18T12:35:59Z</time>
      </trkpt>
      <trkpt lat="46.91415" lon="4.70847">
        <ele>236</ele>
        <time>2010-04-18T12:36:50Z</time>
      </trkpt>
      <trkpt lat="46.9141" lon="4.70775">
        <ele>237</ele>
        <time>2010-04-18T12:37:05Z</time>
      </trkpt>
      <trkpt lat="46.91395" lon="4.70706">
        <ele>238</ele>
        <time>2010-04-18T12:37:18Z</time>
      </trkpt>
      <trkpt lat="46.91383" lon="4.70635">
        <ele>238</ele>
        <time>2010-04-18T12:37:30Z</time>
      </trkpt>
      <trkpt lat="46.91377" lon="4.70558">
        <ele>239</ele>
        <time>2010-04-18T12:37:43Z</time>
      </trkpt>
      <trkpt lat="46.91387" lon="4.70484">
        <ele>242</ele>
        <time>2010-04-18T12:37:56Z</time>
      </trkpt>
      <trkpt lat="46.91398" lon="4.70411">
        <ele>244</ele>
        <time>2010-04-18T12:38:09Z</time>
      </trkpt>
      <trkpt lat="46.914" lon="4.70336">
        <ele>242</ele>
        <time>2010-04-18T12:38:20Z</time>
      </trkpt>
      <trkpt lat="46.91397" lon="4.70263">
        <ele>241</ele>
        <time>2010-04-18T12:38:30Z</time>
      </trkpt>
      <trkpt lat="46.91385" lon="4.7019">
        <ele>241</ele>
        <time>2010-04-18T12:38:39Z</time>
      </trkpt>
      <trkpt lat="46.91359" lon="4.70127">
        <ele>239</ele>
        <time>2010-04-18T12:38:56Z</time>
      </trkpt>
      <trkpt lat="46.91309" lon="4.70109">
        <ele>233</ele>
        <time>2010-04-18T12:39:04Z</time>
      </trkpt>
      <trkpt lat="46.91253" lon="4.70092">
        <ele>229</ele>
        <time>2010-04-18T12:39:11Z</time>
      </trkpt>
      <trkpt lat="46.91193" lon="4.70077">
        <ele>225</ele>
        <time>2010-04-18T12:39:18Z</time>
      </trkpt>
      <trkpt lat="46.91146" lon="4.70042">
        <ele>220</ele>
        <time>2010-04-18T12:39:31Z</time>
      </trkpt>
      <trkpt lat="46.91123" lon="4.69977">
        <ele>220</ele>
        <time>2010-04-18T12:41:52Z</time>
      </trkpt>
      <trkpt lat="46.91088" lon="4.69924">
        <ele>217</ele>
        <time>2010-04-18T12:42:07Z</time>
      </trkpt>
      <trkpt lat="46.91057" lon="4.69865">
        <ele>215</ele>
        <time>2010-04-18T12:42:18Z</time>
      </trkpt>
      <trkpt lat="46.91038" lon="4.69793">
        <ele>214</ele>
        <time>2010-04-18T12:42:29Z</time>
      </trkpt>
      <trkpt lat="46.91008" lon="4.69729">
        <ele>215</ele>
        <time>2010-04-18T12:42:41Z</time>
      </trkpt>
      <trkpt lat="46.90968" lon="4.69681">
        <ele>214</ele>
        <time>2010-04-18T12:42:52Z</time>
      </trkpt>
      <trkpt lat="46.90925" lon="4.69635">
        <ele>213</ele>
        <time>2010-04-18T12:43:02Z</time>
      </trkpt>
      <trkpt lat="46.90879" lon="4.6959">
        <ele>212</ele>
        <time>2010-04-18T12:43:12Z</time>
      </trkpt>
      <trkpt lat="46.90834" lon="4.69549">
        <ele>211</ele>
        <time>2010-04-18T12:43:22Z</time>
      </trkpt>
      <trkpt lat="46.90798" lon="4.69497">
        <ele>211</ele>
        <time>2010-04-18T12:43:32Z</time>
      </trkpt>
      <trkpt lat="46.90777" lon="4.69468">
        <ele>217</ele>
        <time>2010-04-18T14:45:07Z</time>
      </trkpt>
      <trkpt lat="46.90734" lon="4.69475">
        <ele>217</ele>
        <time>2010-04-18T14:45:23Z</time>
      </trkpt>
      <trkpt lat="46.90689" lon="4.69511">
        <ele>216</ele>
        <time>2010-04-18T14:45:35Z</time>
      </trkpt>
      <trkpt lat="46.90641" lon="4.69537">
        <ele>216</ele>
        <time>2010-04-18T14:45:46Z</time>
      </trkpt>
      <trkpt lat="46.9059" lon="4.69545">
        <ele>213</ele>
        <time>2010-04-18T14:45:56Z</time>
      </trkpt>
      <trkpt lat="46.90541" lon="4.69564">
        <ele>213</ele>
        <time>2010-04-18T14:46:06Z</time>
      </trkpt>
      <trkpt lat="46.90489" lon="4.69561">
        <ele>214</ele>
        <time>2010-04-18T14:46:17Z</time>
      </trkpt>
      <trkpt lat="46.90449" lon="4.69517">
        <ele>215</ele>
        <time>2010-04-18T14:46:28Z</time>
      </trkpt>
      <trkpt lat="46.90405" lon="4.69476">
        <ele>218</ele>
        <time>2010-04-18T14:46:40Z</time>
      </trkpt>
      <trkpt lat="46.90358" lon="4.69458">
        <ele>220</ele>
        <time>2010-04-18T14:46:53Z</time>
      </trkpt>
      <trkpt lat="46.90312" lon="4.69422">
        <ele>222</ele>
        <time>2010-04-18T14:47:06Z</time>
      </trkpt>
      <trkpt lat="46.9027" lon="4.69382">
        <ele>225</ele>
        <time>2010-04-18T14:47:20Z</time>
      </trkpt>
    </trkseg>
  </trk>
</gpx>